Time;durP1;ratioP1;P1;durP2;ratioP2;P2;SDS_P1;SDS_P2;PMS_P1;PMS_P2;Temp;Humidity;BMP_temperature;BMP_pressure;BME280_temperature;BME280_humidity;BME280_pressure;Samples;Min_cycle;Max_cycle;Signal;HPM_P1;HPM_P2
2022/05/22 00:01:00;;;;;;;;;6.00;6.00;;;;;24.08;39.88;101277.94;4997432;28;45447;-51
2022/05/22 00:03:25;;;;;;;;;6.00;5.75;;;;;24.07;40.09;101276.22;4997494;28;45306;-51
2022/05/22 00:05:50;;;;;;;;;4.00;4.00;;;;;24.09;39.70;101284.06;4997415;28;45241;-46
2022/05/22 00:08:16;;;;;;;;;6.75;5.00;;;;;24.07;39.54;101270.94;4997768;28;45308;-50
2022/05/22 00:10:42;;;;;;;;;4.50;4.50;;;;;24.09;40.09;101278.75;4997283;28;45907;-47
2022/05/22 00:13:07;;;;;;;;;5.00;5.00;;;;;24.08;39.78;101272.63;4996953;28;45322;-48
2022/05/22 00:15:32;;;;;;;;;5.00;5.00;;;;;24.08;40.09;101277.06;4997671;28;45279;-50
2022/05/22 00:17:58;;;;;;;;;7.00;5.00;;;;;24.08;39.82;101277.06;4997577;28;45628;-50
2022/05/22 00:20:24;;;;;;;;;5.50;5.00;;;;;24.09;40.11;101273.47;4997142;28;46183;-48
2022/05/22 00:22:49;;;;;;;;;4.25;4.25;;;;;24.06;40.06;101269.22;4997288;28;45793;-51
2022/05/22 00:25:15;;;;;;;;;5.00;5.00;;;;;24.06;39.77;101269.22;4997326;28;45506;-49
2022/05/22 00:27:42;;;;;;;;;7.25;5.75;;;;;24.07;39.82;101260.34;4997296;28;45629;-52
2022/05/22 00:30:09;;;;;;;;;5.75;5.00;;;;;24.06;40.08;101261.28;4996693;28;46813;-52
2022/05/22 00:32:35;;;;;;;;;4.50;4.25;;;;;24.06;40.18;101258.63;4997076;28;45801;-50
2022/05/22 00:35:01;;;;;;;;;5.25;4.50;;;;;24.06;40.13;101263.06;4997413;28;45363;-50
2022/05/22 00:37:26;;;;;;;;;5.00;5.00;;;;;24.05;40.11;101267.53;4997200;28;45412;-49
2022/05/22 00:39:51;;;;;;;;;5.00;5.00;;;;;24.05;39.71;101267.53;4996799;28;46362;-50
2022/05/22 00:42:19;;;;;;;;;4.25;4.25;;;;;24.05;39.93;101259.56;4996855;28;45335;-51
2022/05/22 00:44:47;;;;;;;;;7.25;5.00;;;;;24.05;39.96;101256.94;4996958;28;45457;-50
2022/05/22 00:47:12;;;;;;;;;6.00;5.00;;;;;24.04;39.95;101254.34;4997215;28;45470;-49
2022/05/22 00:49:42;;;;;;;;;4.75;4.75;;;;;24.04;40.17;101247.28;4996684;28;45511;-48
2022/05/22 00:52:18;;;;;;;;;5.25;4.00;;;;;24.05;40.13;101250.75;5011962;28;45353;-50
2022/05/22 00:54:54;;;;;;;;;6.00;4.00;;;;;24.03;40.11;101236.81;4997062;28;45466;-49
2022/05/22 00:57:25;;;;;;;;;5.00;5.00;;;;;24.05;40.43;101229.59;4995756;28;45484;-48
2022/05/22 00:59:59;;;;;;;;;5.00;5.00;;;;;24.05;40.07;101237.53;4996658;28;45448;-49
2022/05/22 01:02:26;;;;;;;;;5.25;4.75;;;;;24.02;40.18;101233.28;4996641;28;45775;-51
2022/05/22 01:04:52;;;;;;;;;4.75;4.75;;;;;24.02;39.93;101221.84;4996865;28;45377;-51
2022/05/22 01:07:19;;;;;;;;;6.75;5.00;;;;;24.02;39.96;101217.41;4996909;28;45329;-50
2022/05/22 01:09:46;;;;;;;;;3.00;3.00;;;;;24.01;40.43;101223.63;4996295;28;46550;-52
2022/05/22 01:12:16;;;;;;;;;4.00;4.00;;;;;24.01;40.27;101218.34;5011799;28;45482;-51
2022/05/22 01:14:44;;;;;;;;;4.50;4.00;;;;;24.01;40.22;101207.75;4996835;28;45798;-48
2022/05/22 01:17:11;;;;;;;;;4.25;4.25;;;;;23.99;40.42;101199.06;4996720;28;45435;-52
2022/05/22 01:19:37;;;;;;;;;6.00;4.50;;;;;23.99;39.96;101192.94;4996633;28;46727;-52
2022/05/22 01:22:09;;;;;;;;;4.50;4.50;;;;;23.99;40.29;101199.06;4996562;28;45791;-54
2022/05/22 01:24:34;;;;;;;;;5.00;5.00;;;;;24.00;40.54;101194.63;4998484;28;45391;-53
2022/05/22 01:27:02;;;;;;;;;4.00;4.00;;;;;23.99;40.33;101199.06;5000171;28;45563;-48
2022/05/22 01:29:28;;;;;;;;;4.75;4.75;;;;;23.97;39.82;101195.69;4999785;28;45554;-49
2022/05/22 01:31:54;;;;;;;;;5.00;5.00;;;;;23.99;40.31;101193.75;4999744;28;45414;-48
2022/05/22 01:34:19;;;;;;;;;5.00;5.00;;;;;24.01;39.98;101198.97;4999933;28;45381;-48
2022/05/22 01:36:45;;;;;;;;;4.25;4.25;;;;;23.99;40.15;101192.94;5000063;28;45467;-53
2022/05/22 01:39:10;;;;;;;;;7.00;4.00;;;;;23.99;40.19;101193.75;4999773;28;46423;-47
2022/05/22 01:41:36;;;;;;;;;5.00;5.00;;;;;24.00;39.68;101189.34;4999935;28;45241;-54
2022/05/22 01:44:02;;;;;;;;;8.25;3.75;;;;;23.99;40.14;101184.97;4999920;28;45440;-50
2022/05/22 01:46:27;;;;;;;;;6.75;6.00;;;;;23.98;40.47;101186.75;4999949;28;45213;-47
2022/05/22 01:48:52;;;;;;;;;5.00;4.00;;;;;23.98;40.42;101191.22;4999332;28;46128;-47
2022/05/22 01:51:18;;;;;;;;;4.25;4.25;;;;;23.96;39.83;101191.34;4999441;28;45245;-50
2022/05/22 01:53:43;;;;;;;;;4.00;4.00;;;;;23.97;40.43;101190.38;4999862;28;45293;-49
2022/05/22 01:56:09;;;;;;;;;6.00;4.00;;;;;23.97;40.13;101182.44;4999656;28;45478;-47
2022/05/22 01:58:34;;;;;;;;;4.75;4.25;;;;;23.98;39.91;101192.06;4999643;28;45379;-49
2022/05/22 02:00:59;;;;;;;;;5.00;4.00;;;;;23.96;40.36;101187.81;4999498;28;45434;-48
2022/05/22 02:03:25;;;;;;;;;4.00;3.00;;;;;23.97;40.68;101181.56;4999469;28;45307;-49
2022/05/22 02:05:50;;;;;;;;;3.25;3.25;;;;;23.97;40.01;101184.22;4999585;28;45451;-52
2022/05/22 02:08:26;;;;;;;;;6.00;4.00;;;;;23.96;40.28;101175.44;4999290;28;45445;-46
2022/05/22 02:10:58;;;;;;;;;3.00;3.00;;;;;23.96;39.97;101183.38;4999046;28;45828;-47
2022/05/22 02:13:27;;;;;;;;;4.00;4.00;;;;;23.96;39.95;101182.53;4999405;28;45304;-47
2022/05/22 02:15:53;;;;;;;;;4.25;3.50;;;;;23.94;40.03;101179.97;4999464;28;45384;-52
2022/05/22 02:18:19;;;;;;;;;7.00;5.50;;;;;23.94;40.57;101179.97;4999087;28;46063;-47
2022/05/22 02:20:44;;;;;;;;;5.00;4.00;;;;;23.93;40.12;101183.56;4998987;28;45297;-53
2022/05/22 02:23:10;;;;;;;;;4.75;4.00;;;;;23.91;40.28;101188.09;4999348;28;45437;-47
2022/05/22 02:25:38;;;;;;;;;5.00;4.00;;;;;23.90;40.05;101181.09;4999596;28;45242;-51
2022/05/22 02:28:06;;;;;;;;;3.50;3.50;;;;;23.91;39.98;101182.78;4998997;28;46657;-47
2022/05/22 02:30:35;;;;;;;;;3.25;3.25;;;;;23.90;40.03;101179.31;4997718;28;46184;-47
2022/05/22 02:33:00;;;;;;;;;3.25;3.25;;;;;23.89;40.31;101176.75;4999051;28;45432;-50
2022/05/22 02:35:26;;;;;;;;;4.75;4.00;;;;;23.89;39.82;101174.97;4997701;28;45259;-47
2022/05/22 02:37:55;;;;;;;;;4.75;3.50;;;;;23.89;40.40;101179.38;4998753;28;46413;-48
2022/05/22 02:40:23;;;;;;;;;3.75;3.00;;;;;23.90;40.20;101183.75;4998723;28;45423;-52
2022/05/22 02:42:50;;;;;;;;;3.75;3.75;;;;;23.89;40.12;101188.19;4998680;28;45423;-45
2022/05/22 02:45:21;;;;;;;;;2.75;2.00;;;;;23.90;40.40;101183.75;5014329;28;45522;-49
2022/05/22 02:47:47;;;;;;;;;4.00;4.00;;;;;23.89;39.91;101192.63;4998697;28;45562;-49
2022/05/22 02:50:15;;;;;;;;;3.25;3.25;;;;;23.89;40.43;101198.78;4998583;28;45942;-53
2022/05/22 02:52:40;;;;;;;;;5.25;3.50;;;;;23.88;40.36;101201.50;4999033;28;45303;-50
2022/05/22 02:55:08;;;;;;;;;4.00;4.00;;;;;23.87;40.28;101197.16;4998843;28;45280;-46
2022/05/22 02:57:34;;;;;;;;;3.25;3.25;;;;;23.88;40.06;101210.31;4998025;28;45380;-47
2022/05/22 02:59:59;;;;;;;;;5.00;4.00;;;;;23.88;39.80;101201.50;4998358;28;45419;-48
2022/05/22 03:02:25;;;;;;;;;2.00;2.00;;;;;23.87;39.82;101213.03;4998616;28;45350;-48
2022/05/22 03:04:50;;;;;;;;;4.00;4.00;;;;;23.87;39.96;101210.41;4998748;28;45427;-47
2022/05/22 03:07:18;;;;;;;;;3.00;3.00;;;;;23.87;39.87;101199.81;4998443;28;45490;-49
2022/05/22 03:09:45;;;;;;;;;3.00;2.50;;;;;23.89;39.93;101203.22;4997087;28;45517;-47
2022/05/22 03:12:15;;;;;;;;;4.00;4.00;;;;;23.89;39.72;101200.56;4998910;28;45336;-48
2022/05/22 03:14:50;;;;;;;;;4.25;2.00;;;;;23.87;40.01;101191.88;4998874;28;45499;-48
2022/05/22 03:17:17;;;;;;;;;3.75;3.75;;;;;23.88;39.80;101198.88;4998292;28;46708;-47
2022/05/22 03:19:42;;;;;;;;;4.75;3.25;;;;;23.87;39.66;101190.09;4998506;28;45305;-50
2022/05/22 03:22:09;;;;;;;;;4.00;4.00;;;;;23.86;39.86;101176.97;5013767;28;45792;-48
2022/05/22 03:24:35;;;;;;;;;3.75;3.25;;;;;23.84;39.82;101173.56;4998407;28;45491;-46
2022/05/22 03:27:01;;;;;;;;;2.00;2.00;;;;;23.84;39.59;101162.97;4997993;28;47073;-46
2022/05/22 03:29:27;;;;;;;;;2.00;2.00;;;;;23.82;39.91;101159.56;4998071;28;45852;-48
2022/05/22 03:31:52;;;;;;;;;4.00;2.75;;;;;23.78;39.98;101151.81;4998138;28;45336;-47
2022/05/22 03:34:17;;;;;;;;;2.50;2.50;;;;;23.80;40.22;101153.50;4998256;28;45370;-46
2022/05/22 03:36:43;;;;;;;;;3.00;3.00;;;;;23.80;39.50;101151.75;4998181;28;46266;-47
2022/05/22 03:39:09;;;;;;;;;2.25;2.25;;;;;23.78;39.97;101145.69;4998163;28;45229;-45
2022/05/22 03:41:35;;;;;;;;;5.00;3.50;;;;;23.77;39.81;101139.53;4997782;28;45344;-50
2022/05/22 03:44:01;;;;;;;;;4.00;3.00;;;;;23.77;40.00;101146.63;5013396;28;45361;-48
2022/05/22 03:46:26;;;;;;;;;4.00;2.75;;;;;23.78;39.71;101149.16;4997089;28;45476;-48
2022/05/22 03:48:52;;;;;;;;;4.25;3.00;;;;;23.79;39.74;101144.75;4997620;28;45334;-48
2022/05/22 03:51:17;;;;;;;;;4.00;3.00;;;;;23.79;40.00;101152.69;4997835;28;45311;-46
2022/05/22 03:53:42;;;;;;;;;3.00;3.00;;;;;23.79;39.98;101150.03;4998386;28;45301;-50
2022/05/22 03:56:16;;;;;;;;;3.75;3.00;;;;;23.81;39.84;101147.28;4997607;28;45415;-50
2022/05/22 03:58:42;;;;;;;;;3.00;3.00;;;;;23.80;39.41;101145.56;4997960;28;45664;-50
2022/05/22 04:01:08;;;;;;;;;3.25;3.25;;;;;23.77;39.38;101134.22;4997765;28;45404;-51
2022/05/22 04:03:34;;;;;;;;;4.00;3.50;;;;;23.78;39.46;101141.22;4997830;28;45412;-50
2022/05/22 04:06:01;;;;;;;;;2.75;2.75;;;;;23.78;40.09;101135.09;4997500;28;45669;-49
2022/05/22 04:08:28;;;;;;;;;3.00;3.00;;;;;23.77;39.50;101126.28;4997515;28;45371;-52
2022/05/22 04:10:54;;;;;;;;;3.00;3.00;;;;;23.78;39.49;101128.00;4996131;28;45283;-50
2022/05/22 04:13:19;;;;;;;;;4.00;3.00;;;;;23.75;39.85;101114.97;4997580;28;45523;-46
2022/05/22 04:15:46;;;;;;;;;4.00;3.00;;;;;23.76;39.55;101114.00;4997556;28;46720;-46
2022/05/22 04:18:14;;;;;;;;;3.00;3.00;;;;;23.74;39.58;101110.63;5012739;28;45748;-48
2022/05/22 04:20:40;;;;;;;;;2.00;2.00;;;;;23.72;39.94;101109.88;4997468;28;45358;-50
2022/05/22 04:25:58;;;;;;;;;2.25;2.25;;;;;23.72;39.82;101120.47;4996976;28;45310;-46
2022/05/22 04:28:24;;;;;;;;;3.00;3.00;;;;;23.70;39.53;101125.00;5012362;28;46259;-47
2022/05/22 04:30:50;;;;;;;;;3.75;2.75;;;;;23.71;39.45;101120.53;4997182;28;45273;-45
2022/05/22 04:33:16;;;;;;;;;3.00;3.00;;;;;23.71;39.59;101124.06;4997732;28;45565;-49
2022/05/22 04:35:43;;;;;;;;;6.25;3.00;;;;;23.69;39.78;101118.00;4997323;28;47141;-44
2022/05/22 04:38:10;;;;;;;;;4.75;4.00;;;;;23.72;39.51;101122.25;4997004;28;45722;-48
2022/05/22 04:40:37;;;;;;;;;3.00;3.00;;;;;23.71;39.38;101125.84;4996851;28;45307;-48
2022/05/22 04:43:03;;;;;;;;;2.75;2.75;;;;;23.69;39.49;101123.31;4997194;28;45417;-48
2022/05/22 04:45:28;;;;;;;;;4.00;2.00;;;;;23.68;39.47;101126.91;4996733;28;45323;-48
2022/05/22 04:47:54;;;;;;;;;2.00;2.00;;;;;23.66;39.38;101131.44;4996743;28;45324;-46
2022/05/22 04:50:19;;;;;;;;;3.00;3.00;;;;;23.67;39.41;101141.06;4996899;28;45281;-47
2022/05/22 04:52:44;;;;;;;;;2.50;2.50;;;;;23.68;39.53;101139.28;4997402;28;45639;-50
2022/05/22 04:55:10;;;;;;;;;4.00;2.75;;;;;23.68;39.59;101137.47;4996813;28;46343;-48
2022/05/22 04:57:35;;;;;;;;;3.00;3.00;;;;;23.68;39.95;101134.00;4996603;28;45428;-47
2022/05/22 05:00:06;;;;;;;;;2.50;2.50;;;;;23.70;39.32;101140.03;4995763;28;45234;-49
2022/05/22 05:02:32;;;;;;;;;2.50;2.00;;;;;23.69;39.75;101138.34;4997042;28;45455;-45
2022/05/22 05:04:58;;;;;;;;;3.50;2.50;;;;;23.68;39.60;101145.41;4996432;28;45451;-47
2022/05/22 05:07:24;;;;;;;;;4.00;3.00;;;;;23.68;39.66;101140.13;5011872;28;45336;-50
2022/05/22 05:09:50;;;;;;;;;7.00;4.00;;;;;23.69;39.94;101139.19;4996657;28;45270;-51
2022/05/22 05:12:17;;;;;;;;;6.25;5.00;;;;;23.70;39.68;101140.03;5012327;28;45642;-51
2022/05/22 05:14:42;;;;;;;;;4.00;4.00;;;;;23.71;39.65;101139.94;4996427;28;46556;-52
2022/05/22 05:17:10;;;;;;;;;4.50;2.00;;;;;23.70;39.65;101132.94;4996596;28;45301;-49
2022/05/22 05:19:35;;;;;;;;;5.75;4.00;;;;;23.68;39.63;101134.84;4996554;28;45446;-47
2022/05/22 05:22:00;;;;;;;;;4.00;2.00;;;;;23.68;39.40;101137.47;4996781;28;45666;-53
2022/05/22 05:24:26;;;;;;;;;5.25;4.25;;;;;23.70;39.33;101137.41;4995950;28;58379;-51
2022/05/22 05:26:54;;;;;;;;;4.75;3.75;;;;;23.69;39.64;101139.19;4996491;28;45391;-49
2022/05/22 05:29:20;;;;;;;;;5.25;5.25;;;;;23.68;39.78;101142.78;4996595;28;45411;-47
2022/05/22 05:31:45;;;;;;;;;3.00;3.00;;;;;23.66;39.40;101149.94;4996896;28;45294;-48
2022/05/22 05:34:11;;;;;;;;;7.75;3.00;;;;;23.65;39.14;101148.25;4995100;28;45481;-47
2022/05/22 05:36:37;;;;;;;;;4.00;3.00;;;;;23.65;39.33;101150.91;4996214;28;45238;-47
2022/05/22 05:39:03;;;;;;;;;5.25;4.00;;;;;23.66;39.17;101144.66;4994983;28;45392;-47
2022/05/22 05:41:28;;;;;;;;;4.50;3.00;;;;;23.66;39.20;101157.88;4996395;28;45525;-51
2022/05/22 05:43:54;;;;;;;;;2.00;2.00;;;;;23.67;39.44;101150.81;4994762;28;47324;-52
2022/05/22 05:46:19;;;;;;;;;4.25;4.00;;;;;23.66;39.34;101147.31;4995913;28;54107;-47
2022/05/22 05:48:44;;;;;;;;;5.50;4.00;;;;;23.65;39.32;101148.25;4996157;28;45375;-48
2022/05/22 05:51:13;;;;;;;;;3.50;3.00;;;;;23.67;39.34;101164.88;4996213;28;45313;-47
2022/05/22 05:53:39;;;;;;;;;3.25;3.25;;;;;23.66;39.26;101155.25;4995892;28;46658;-47
2022/05/22 05:56:05;;;;;;;;;3.00;3.00;;;;;23.67;39.28;101151.66;4995988;28;45213;-47
2022/05/22 05:58:31;;;;;;;;;3.50;3.00;;;;;23.67;39.29;101141.06;4996177;28;45365;-47
2022/05/22 06:00:56;;;;;;;;;3.00;2.00;;;;;23.67;39.09;101141.06;4996268;28;45249;-47
2022/05/22 06:03:22;;;;;;;;;2.75;2.75;;;;;23.67;39.02;101138.41;4995698;28;45338;-49
2022/05/22 06:05:48;;;;;;;;;2.25;2.25;;;;;23.67;38.99;101127.84;4996188;28;45277;-47
2022/05/22 06:08:13;;;;;;;;;3.00;2.00;;;;;23.67;39.09;101129.66;4995973;28;45348;-45
2022/05/22 06:10:39;;;;;;;;;4.00;4.00;;;;;23.66;39.27;101125.31;4996304;28;45320;-47
2022/05/22 06:13:04;;;;;;;;;3.00;2.75;;;;;23.67;39.05;101133.13;4998775;28;45436;-48
2022/05/22 06:15:30;;;;;;;;;1.00;1.00;;;;;23.68;38.97;101126.91;4997577;28;45542;-46
2022/05/22 06:17:56;;;;;;;;;3.00;3.00;;;;;23.68;38.67;101116.31;4999017;28;45375;-46
2022/05/22 06:20:22;;;;;;;;;2.25;2.25;;;;;23.67;39.02;101117.25;4999348;28;45664;-51
2022/05/22 06:22:48;;;;;;;;;2.00;2.00;;;;;23.69;38.98;101098.66;4999211;28;46505;-51
2022/05/22 06:25:15;;;;;;;;;2.00;2.00;;;;;23.69;39.14;101088.06;4999040;28;45336;-52
2022/05/22 06:27:43;;;;;;;;;4.75;2.50;;;;;23.68;38.57;101089.84;4999036;28;45340;-52
2022/05/22 06:30:12;;;;;;;;;4.25;2.00;;;;;23.69;38.93;101094.19;4999195;28;45464;-51
2022/05/22 06:32:39;;;;;;;;;4.50;3.00;;;;;23.69;38.60;101086.25;4998771;28;45455;-46
2022/05/22 06:35:06;;;;;;;;;2.00;2.00;;;;;23.69;38.88;101075.66;4998769;28;45264;-47
2022/05/22 06:37:31;;;;;;;;;2.75;2.75;;;;;23.67;38.31;101059.03;4998950;28;45332;-48
2022/05/22 06:39:57;;;;;;;;;2.25;2.25;;;;;23.69;39.02;101051.03;4999240;28;45471;-49
2022/05/22 06:42:35;;;;;;;;;2.00;2.00;;;;;23.71;38.55;101046.44;4997402;28;51363;-47
2022/05/22 06:45:09;;;;;;;;;4.00;3.00;;;;;23.71;38.71;101047.31;4998752;28;45666;-49
2022/05/22 06:47:36;;;;;;;;;2.00;2.00;;;;;23.72;38.45;101045.50;4998943;28;45441;-48
2022/05/22 06:50:04;;;;;;;;;1.75;1.75;;;;;23.73;38.73;101040.13;5013982;28;45582;-47
2022/05/22 06:52:30;;;;;;;;;2.00;2.00;;;;;23.73;38.99;101047.19;4998529;28;46293;-48
2022/05/22 06:54:56;;;;;;;;;2.00;2.00;;;;;23.74;38.45;101046.25;4998491;28;45351;-48
2022/05/22 06:57:22;;;;;;;;;3.00;3.00;;;;;23.75;38.59;101047.97;4998971;28;45413;-46
2022/05/22 06:59:48;;;;;;;;;3.00;3.00;;;;;23.74;38.67;101047.13;4998731;28;45209;-47
2022/05/22 07:02:15;;;;;;;;;2.00;2.00;;;;;23.76;38.04;101054.94;4998458;28;46939;-48
2022/05/22 07:04:41;;;;;;;;;2.00;2.00;;;;;23.76;38.27;101053.13;4998302;28;45427;-48
2022/05/22 07:07:07;;;;;;;;;2.00;2.00;;;;;23.76;38.72;101058.44;4998439;28;45318;-46
2022/05/22 07:09:32;;;;;;;;;5.00;2.00;;;;;23.75;38.33;101067.34;4998504;28;45553;-47
2022/05/22 07:11:59;;;;;;;;;4.50;2.00;;;;;23.76;38.64;101066.38;4998145;28;45342;-46
2022/05/22 07:14:27;;;;;;;;;2.50;2.00;;;;;23.78;38.69;101056.53;4998273;28;45757;-48
2022/05/22 07:16:53;;;;;;;;;2.00;2.00;;;;;23.77;38.73;101044.25;4998568;28;45344;-46
2022/05/22 07:19:19;;;;;;;;;3.50;2.00;;;;;23.78;38.60;101045.13;4997206;28;45652;-47
2022/05/22 07:21:45;;;;;;;;;2.00;2.00;;;;;23.77;38.50;101064.59;4996798;28;46410;-49
2022/05/22 07:24:11;;;;;;;;;2.00;2.00;;;;;23.76;38.37;101052.31;4997958;28;45765;-51
2022/05/22 07:26:36;;;;;;;;;4.00;2.00;;;;;23.77;38.06;101038.97;4998126;28;45561;-46
2022/05/22 07:29:02;;;;;;;;;2.50;2.50;;;;;23.76;38.01;101013.44;4998251;28;45262;-49
2022/05/22 07:31:28;;;;;;;;;2.00;2.00;;;;;23.76;38.60;101018.72;4996613;28;45424;-46
2022/05/22 07:33:55;;;;;;;;;3.00;1.75;;;;;23.73;38.73;101000.44;4998189;28;45906;-48
2022/05/22 07:36:21;;;;;;;;;1.50;1.50;;;;;23.77;38.20;101020.44;4998050;28;45274;-47
2022/05/22 07:38:47;;;;;;;;;3.00;2.00;;;;;23.75;38.41;101040.88;4998242;28;45526;-51
2022/05/22 07:41:13;;;;;;;;;3.00;2.00;;;;;23.74;38.47;101052.41;4997580;28;46341;-48
2022/05/22 07:43:39;;;;;;;;;5.00;3.00;;;;;23.76;38.33;101052.31;4997665;28;45402;-48
2022/05/22 07:46:06;;;;;;;;;3.75;3.75;;;;;23.78;38.09;101050.41;4997933;28;45498;-47
2022/05/22 07:48:32;;;;;;;;;4.00;3.00;;;;;23.78;38.77;101048.59;4997947;28;45510;-47
2022/05/22 07:51:00;;;;;;;;;3.50;2.00;;;;;23.79;38.62;101033.59;4997400;28;46727;-47
2022/05/22 07:53:27;;;;;;;;;2.00;2.00;;;;;23.81;38.50;101015.81;4996656;28;45409;-47
2022/05/22 07:55:53;;;;;;;;;3.00;2.25;;;;;23.82;38.52;101016.66;4997854;28;45363;-47
2022/05/22 07:58:20;;;;;;;;;2.25;1.50;;;;;23.82;38.28;101022.78;4997769;28;45462;-47
2022/05/22 08:00:47;;;;;;;;;4.00;2.00;;;;;23.83;38.79;101021.00;4997288;28;45389;-47
2022/05/22 08:03:15;;;;;;;;;3.25;3.25;;;;;23.84;38.11;101014.75;4997544;28;45319;-46
2022/05/22 08:05:41;;;;;;;;;3.00;3.00;;;;;23.84;38.28;101009.44;4997491;28;45237;-47
2022/05/22 08:08:08;;;;;;;;;2.50;2.50;;;;;23.85;38.39;101008.50;4997786;28;45282;-46
2022/05/22 08:10:36;;;;;;;;;1.75;1.75;;;;;23.86;38.75;100994.31;4997149;28;46651;-48
2022/05/22 08:13:03;;;;;;;;;3.00;2.00;;;;;23.86;38.35;100994.31;4997195;28;45376;-49
2022/05/22 08:15:30;;;;;;;;;3.00;3.00;;;;;23.89;38.31;101005.56;4997389;28;45330;-47
2022/05/22 08:17:56;;;;;;;;;3.50;2.25;;;;;23.89;38.07;100989.66;4997666;28;45544;-49
2022/05/22 08:20:22;;;;;;;;;2.00;2.00;;;;;23.91;38.62;100973.66;4997002;28;47090;-48
2022/05/22 08:22:47;;;;;;;;;2.00;2.00;;;;;23.91;38.21;100958.66;4997247;28;45399;-47
2022/05/22 08:25:16;;;;;;;;;1.50;1.50;;;;;23.92;38.13;100938.31;4996835;28;45391;-48
2022/05/22 08:27:42;;;;;;;;;2.00;2.00;;;;;23.93;38.32;100940.00;4997065;28;45436;-48
2022/05/22 08:30:10;;;;;;;;;2.50;2.00;;;;;23.93;38.19;100946.13;4996542;28;46391;-49
2022/05/22 08:32:37;;;;;;;;;3.00;3.00;;;;;23.93;38.30;100956.72;4996391;28;45688;-47
